Bristol, NH (03222)

9:28 PM EDT on May 25, 2015 (GMT -0400)
Bristol Village | | Change Station
CLOSE
Current Station
Personal Weather Station
Location: Bristol, NH
Elevation: 515 ft
Nearby Weather Stations

Elev 515 ft 43.59 °N, 71.74 °W | Updated 4 seconds ago

Overcast
Overcast
65.0 °F
Feels Like 65.0 °F
N
0.0
Wind Variable Wind from NNE
Gusts 0.0 mph

Today
High -- | Low -- °F
--% Chance of Precip.
Yesterday
High -- | Low -- °F
Precip. -- in
5:13 AM 8:15 PM
First Quarter, 53% visible
Pressure 30.10 in
Visibility 10.0 miles
Clouds Scattered Clouds 6500 ft
Overcast 8500 ft
Dew Point 60 °F
Humidity 84%
Rainfall 0.00 in
Snow Depth Not available.
UV 0.0 out of 12
Pollen 8.80 out of 12
Air Quality Not available.
Flu Activity Sporadic
METAR K1P1 260115Z AUTO 00000KT 10SM -RA SCT065 OVC085 18/17 A3010 RMK AO2 T01760173

More Conditions Fewer Conditions

Pressure 30.10 in
Visibility 10.0 miles
Clouds Scattered Clouds 6500 ft
Overcast 8500 ft
Dew Point 60 °F
Humidity 84%
Rainfall 0.00 in
Snow Depth Not available.
UV 0.0 out of 12
Pollen 8.80 out of 12
Air Quality Not available.
Flu Activity Sporadic
METAR K1P1 260115Z AUTO 00000KT 10SM -RA SCT065 OVC085 18/17 A3010 RMK AO2 T01760173

More Conditions Fewer Conditions

10-Day Weather Forecast

Almanac

Astronomy

May. 25, 2015 Rise Set
Actual Time
Civil Twilight
Nautical Twilight
Astronomical Twilight
Moon
Length of Visible Light
Length of Day
Tomorrow will be .
, % of the Moon is Illuminated

Today's Extremes

State Highs State Lows

Community

WunderPhotos

Upload Photos

1,824,206 photos uploaded!

WunderBlogs® & News

Nearby

Air Quality

  Air Quality AQ Index Pollutant
Not available.

Snow Depth

Station Depth Elevation

Earthquake Activity

City Distance Mag. Time & Date
Minimum magnitude displayed is 2.5.

Coastal Water Temperatures

Place Temperature

Stations

Nearby Weather Stations

Station Location Temp. Windchill Dew Point Humidity Wind Precip. Elev Updated Type